createdAt,value
2016-05-23T00:00:58.762Z,19.55
2016-05-23T00:01:58.875Z,19.58
2016-05-23T00:02:58.815Z,19.61
2016-05-23T00:03:59.067Z,19.54
2016-05-23T00:04:58.820Z,19.66
2016-05-23T00:05:58.792Z,19.6
2016-05-23T00:06:59.044Z,19.61
2016-05-23T00:07:58.766Z,19.61
2016-05-23T00:08:58.753Z,19.63
2016-05-23T00:09:58.662Z,19.68
2016-05-23T00:10:58.649Z,19.6
2016-05-23T00:11:58.761Z,19.6
2016-05-23T00:12:58.967Z,19.51
2016-05-23T00:13:58.610Z,19.57
2016-05-23T00:14:58.268Z,19.55
2016-05-23T00:15:58.787Z,19.6
2016-05-23T00:16:58.916Z,19.53
2016-05-23T00:17:58.683Z,19.6
2016-05-23T00:18:58.498Z,19.58
2016-05-23T00:19:59.877Z,19.48
2016-05-23T00:20:58.488Z,19.55
2016-05-23T00:22:59.040Z,19.55
2016-05-23T00:23:58.310Z,19.47
2016-05-23T00:24:58.609Z,19.51
2016-05-23T00:25:58.392Z,19.4
2016-05-23T00:26:58.349Z,19.54
2016-05-23T00:27:58.162Z,19.51
2016-05-23T00:28:58.807Z,19.51
2016-05-23T00:29:58.325Z,19.53
2016-05-23T00:30:58.234Z,19.51
2016-05-23T00:31:58.268Z,19.43
2016-05-23T00:32:58.051Z,19.5
2016-05-23T00:33:58.211Z,19.55
2016-05-23T00:34:58.198Z,19.47
2016-05-23T00:35:58.200Z,19.42
2016-05-23T00:36:58.234Z,19.5
2016-05-23T00:37:58.159Z,19.48
2016-05-23T00:38:58.068Z,19.48
2016-05-23T00:39:58.680Z,19.46
2016-05-23T00:40:58.730Z,19.46
2016-05-23T00:41:58.185Z,19.53
2016-05-23T00:42:57.907Z,19.38
2016-05-23T00:43:58.035Z,19.39
2016-05-23T00:44:58.303Z,19.33
2016-05-23T00:45:57.758Z,19.36
2016-05-23T00:46:58.636Z,19.42
2016-05-23T00:47:57.983Z,19.42
2016-05-23T00:48:57.907Z,19.39
2016-05-23T00:49:57.879Z,19.39
2016-05-23T00:50:57.850Z,19.33
2016-05-23T00:51:57.885Z,19.35
2016-05-23T00:52:57.809Z,19.29
2016-05-23T00:53:57.842Z,19.42
2016-05-23T00:54:57.721Z,19.4
2016-05-23T00:55:57.770Z,19.38
2016-05-23T00:56:57.740Z,19.23
2016-05-23T00:57:57.416Z,19.24
2016-05-23T00:58:57.887Z,19.2
2016-05-23T00:59:57.562Z,19.28
2016-05-23T01:00:58.330Z,19.32
2016-05-23T01:01:57.677Z,19.24
2016-05-23T01:02:57.523Z,19.29
2016-05-23T01:03:57.603Z,19.2
2016-05-23T01:04:57.810Z,19.24
2016-05-23T01:05:58.265Z,19.17
2016-05-23T01:06:57.534Z,19.14
2016-05-23T01:07:57.427Z,19.21
2016-05-23T01:08:57.617Z,19.18
2016-05-23T01:09:57.511Z,19.21
2016-05-23T01:10:57.560Z,19.2
2016-05-23T01:11:57.453Z,19.21
2016-05-23T01:12:57.722Z,19.15
2016-05-23T01:13:57.616Z,19.14
2016-05-23T01:14:58.805Z,19.15
2016-05-23T01:15:57.496Z,19.15
2016-05-23T01:16:57.452Z,19.05
2016-05-23T01:17:57.422Z,19.06
2016-05-23T01:18:57.394Z,19.11
2016-05-23T01:19:58.147Z,19.02
2016-05-23T01:20:57.260Z,19.13
2016-05-23T01:21:57.324Z,19.1
2016-05-23T01:22:57.280Z,18.99
2016-05-23T01:23:57.282Z,18.99
2016-05-23T01:24:57.816Z,19.02
2016-05-23T01:25:57.007Z,19.02
2016-05-23T01:26:57.321Z,19.01
2016-05-23T01:27:57.138Z,19.08
2016-05-23T01:28:57.812Z,18.98
2016-05-23T01:29:57.329Z,19.02
2016-05-23T01:30:57.098Z,19.05
2016-05-23T01:31:56.882Z,19.06
2016-05-23T01:32:57.026Z,19.02
2016-05-23T01:33:57.590Z,19.02
2016-05-23T01:34:57.953Z,18.92
2016-05-23T01:35:58.378Z,18.99
2016-05-23T01:36:57.427Z,18.94
2016-05-23T01:37:56.898Z,18.98
2016-05-23T01:38:56.900Z,18.97
2016-05-23T01:39:56.748Z,18.97
2016-05-23T01:40:56.797Z,18.94
2016-05-23T01:41:57.441Z,18.98
2016-05-23T01:42:56.850Z,18.95
2016-05-23T01:43:56.774Z,18.91
2016-05-23T01:44:57.589Z,18.92
2016-05-23T01:45:56.748Z,18.92
2016-05-23T01:46:56.844Z,18.91
2016-05-23T01:47:56.832Z,18.87
2016-05-23T01:48:56.538Z,18.98
2016-05-23T01:49:56.665Z,18.91
2016-05-23T01:50:56.668Z,18.95
2016-05-23T01:51:56.483Z,18.97
2016-05-23T01:52:56.751Z,18.92
2016-05-23T01:53:56.644Z,18.91
2016-05-23T01:54:57.507Z,18.95
2016-05-23T01:55:56.604Z,18.9
2016-05-23T01:56:57.121Z,18.91
2016-05-23T01:57:56.562Z,18.87
2016-05-23T01:58:56.893Z,18.91
2016-05-23T01:59:57.629Z,18.95
2016-05-23T02:00:56.913Z,18.87
2016-05-23T02:01:56.619Z,18.87
2016-05-23T02:02:56.419Z,18.87
2016-05-23T02:03:56.500Z,18.87
2016-05-23T02:04:56.814Z,18.87
2016-05-23T02:05:56.552Z,18.92
2016-05-23T02:06:57.008Z,18.92
2016-05-23T02:07:56.369Z,18.9
2016-05-23T02:08:56.373Z,18.91
2016-05-23T02:09:57.063Z,18.87
2016-05-23T02:10:56.519Z,18.9
2016-05-23T02:11:56.365Z,18.92
2016-05-23T02:12:56.695Z,18.9
2016-05-23T02:13:56.088Z,18.83
2016-05-23T02:14:57.108Z,18.87
2016-05-23T02:15:56.219Z,18.87
2016-05-23T02:16:56.769Z,18.82
2016-05-23T02:17:56.083Z,18.82
2016-05-23T02:18:55.961Z,18.86
2016-05-23T02:19:56.027Z,18.82
2016-05-23T02:20:55.889Z,18.82
2016-05-23T02:21:57.080Z,18.83
2016-05-23T02:22:56.222Z,18.74
2016-05-23T02:23:56.007Z,18.77
2016-05-23T02:24:55.791Z,18.79
2016-05-23T02:25:56.934Z,18.79
2016-05-23T02:26:56.390Z,18.79
2016-05-23T02:27:56.299Z,18.73
2016-05-23T02:28:56.176Z,18.68
2016-05-23T02:29:56.351Z,18.79
2016-05-23T02:30:56.963Z,18.74
2016-05-23T02:31:55.965Z,18.77
2016-05-23T02:32:55.750Z,18.77
2016-05-23T02:34:09.581Z,18.79
2016-05-23T02:34:56.490Z,18.76
2016-05-23T02:35:55.976Z,18.77
2016-05-23T02:36:56.213Z,18.73
2016-05-23T02:37:55.763Z,18.74
2016-05-23T02:38:55.640Z,18.67
2016-05-23T02:39:56.300Z,18.73
2016-05-23T02:40:55.708Z,18.74
2016-05-23T02:41:56.212Z,18.67
2016-05-23T02:42:55.448Z,18.65
2016-05-23T02:43:55.889Z,18.7
2016-05-23T02:44:55.844Z,18.7
2016-05-23T02:45:55.941Z,18.65
2016-05-23T02:46:56.084Z,18.59
2016-05-23T02:47:55.743Z,18.64
2016-05-23T02:48:56.371Z,18.72
2016-05-23T02:49:55.467Z,18.7
2016-05-23T02:50:56.283Z,18.73
2016-05-23T02:51:55.675Z,18.61
2016-05-23T02:52:55.413Z,18.67
2016-05-23T02:53:55.821Z,18.58
2016-05-23T02:54:56.012Z,18.62
2016-05-23T02:55:55.561Z,18.64
2016-05-23T02:56:56.361Z,18.64
2016-05-23T02:57:55.302Z,18.7
2016-05-23T02:58:55.194Z,18.67
2016-05-23T02:59:57.900Z,18.58
2016-05-23T03:00:55.309Z,18.62
2016-05-23T03:01:55.343Z,18.58
2016-05-23T03:02:55.580Z,18.72
2016-05-23T03:03:56.161Z,18.65
2016-05-23T03:04:54.992Z,18.7
2016-05-23T03:05:56.228Z,18.59
2016-05-23T03:06:56.419Z,18.58
2016-05-23T03:07:57.531Z,18.59
2016-05-23T03:08:56.190Z,18.73
2016-05-23T03:09:56.927Z,18.61
2016-05-23T03:10:54.976Z,18.67
2016-05-23T03:11:55.729Z,18.57
2016-05-23T03:12:55.732Z,18.57
2016-05-23T03:13:54.875Z,18.58
2016-05-23T03:14:56.128Z,18.54
2016-05-23T03:15:54.912Z,18.58
2016-05-23T03:16:55.462Z,18.55
2016-05-23T03:17:54.870Z,18.59
2016-05-23T03:18:54.685Z,18.55
2016-05-23T03:19:54.830Z,18.62
2016-05-23T03:20:55.300Z,18.54
2016-05-23T03:21:54.710Z,18.59
2016-05-23T03:22:55.369Z,18.58
2016-05-23T03:23:54.761Z,18.57
2016-05-23T03:24:55.264Z,18.62
2016-05-23T03:25:54.736Z,18.64
2016-05-23T03:26:54.677Z,18.58
2016-05-23T03:27:54.835Z,18.55
2016-05-23T03:28:54.665Z,18.54
2016-05-23T03:29:54.496Z,18.55
2016-05-23T03:30:54.671Z,18.57
2016-05-23T03:31:54.690Z,18.55
2016-05-23T03:32:55.207Z,18.55
2016-05-23T03:33:55.413Z,18.61
2016-05-23T03:34:54.525Z,18.61
2016-05-23T03:35:54.326Z,18.55
2016-05-23T03:36:54.531Z,18.61
2016-05-23T03:37:54.440Z,18.55
2016-05-23T03:38:54.442Z,18.62
2016-05-23T03:39:54.508Z,18.64
2016-05-23T03:40:54.417Z,18.58
2016-05-23T03:41:54.342Z,18.58
2016-05-23T03:42:54.344Z,18.64
2016-05-23T03:43:54.440Z,18.59
2016-05-23T03:44:54.881Z,18.58
2016-05-23T03:45:54.414Z,18.54
2016-05-23T03:46:54.495Z,18.58
2016-05-23T03:47:54.997Z,18.58
2016-05-23T03:48:54.251Z,18.58
2016-05-23T03:49:54.222Z,18.54
2016-05-23T03:50:54.084Z,18.58
2016-05-23T03:51:54.322Z,18.57
2016-05-23T03:52:53.964Z,18.62
2016-05-23T03:53:54.467Z,18.62
2016-05-23T03:54:54.236Z,18.64
2016-05-23T03:55:54.130Z,18.64
2016-05-23T03:56:54.132Z,18.59
2016-05-23T03:57:54.072Z,18.55
2016-05-23T03:58:53.996Z,18.54
2016-05-23T03:59:54.030Z,18.57
2016-05-23T04:00:54.158Z,18.61
2016-05-23T04:01:53.973Z,18.58
2016-05-23T04:02:53.976Z,18.58
2016-05-23T04:03:53.963Z,18.62
2016-05-23T04:04:53.919Z,18.61
2016-05-23T04:05:54.281Z,18.59
2016-05-23T04:06:53.862Z,18.58
2016-05-23T04:07:55.318Z,18.59
2016-05-23T04:08:53.821Z,18.59
2016-05-23T04:09:53.776Z,18.59
2016-05-23T04:10:53.888Z,18.59
2016-05-23T04:11:53.765Z,18.61
2016-05-23T04:12:53.737Z,18.65
2016-05-23T04:13:54.553Z,18.58
2016-05-23T04:14:53.587Z,18.49
2016-05-23T04:15:54.370Z,18.64
2016-05-23T04:16:53.639Z,18.59
2016-05-23T04:17:53.626Z,18.57
2016-05-23T04:18:53.675Z,18.57
2016-05-23T04:19:53.694Z,18.73
2016-05-23T04:20:53.837Z,18.61
2016-05-23T04:21:53.542Z,18.73
2016-05-23T04:22:53.577Z,18.58
2016-05-23T04:23:53.689Z,18.57
2016-05-23T04:24:53.597Z,18.61
2016-05-23T04:25:53.538Z,18.61
2016-05-23T04:26:53.494Z,18.7
2016-05-23T04:27:53.763Z,18.72
2016-05-23T04:28:53.499Z,18.62
2016-05-23T04:29:53.393Z,18.68
2016-05-23T04:30:53.770Z,18.72
2016-05-23T04:31:53.648Z,18.72
2016-05-23T04:32:53.384Z,18.72
2016-05-23T04:33:53.684Z,18.72
2016-05-23T04:34:53.327Z,18.65
2016-05-23T04:35:53.565Z,18.65
2016-05-23T04:36:53.318Z,18.72
2016-05-23T04:37:53.382Z,18.68
2016-05-23T04:38:53.979Z,18.72
2016-05-23T04:39:53.201Z,18.65
2016-05-23T04:40:53.328Z,18.76
2016-05-23T04:41:53.784Z,18.67
2016-05-23T04:42:53.256Z,18.67
2016-05-23T04:43:53.884Z,18.7
2016-05-23T04:44:53.854Z,18.65
2016-05-23T04:45:53.561Z,18.65
2016-05-23T04:46:52.751Z,18.7
2016-05-23T04:47:53.144Z,18.72
2016-05-23T04:48:53.428Z,18.62
2016-05-23T04:49:52.837Z,18.68
2016-05-23T04:50:53.043Z,18.72
2016-05-23T04:51:53.015Z,18.72
2016-05-23T04:52:53.094Z,18.58
2016-05-23T04:53:53.083Z,18.64
2016-05-23T04:54:53.069Z,18.64
2016-05-23T04:55:52.681Z,18.57
2016-05-23T04:56:52.825Z,18.62
2016-05-23T04:57:52.844Z,18.59
2016-05-23T04:58:52.814Z,18.61
2016-05-23T04:59:53.066Z,18.57
2016-05-23T05:00:52.758Z,18.57
2016-05-23T05:01:52.744Z,18.61
2016-05-23T05:02:52.513Z,18.58
2016-05-23T05:03:52.655Z,18.57
2016-05-23T05:04:52.658Z,18.64
2016-05-23T05:05:52.661Z,18.7
2016-05-23T05:06:52.586Z,18.58
2016-05-23T05:07:52.573Z,18.62
2016-05-23T05:08:52.451Z,18.74
2016-05-23T05:09:52.610Z,18.59
2016-05-23T05:10:52.549Z,18.64
2016-05-23T05:11:52.552Z,18.74
2016-05-23T05:12:52.493Z,18.7
2016-05-23T05:13:52.589Z,18.67
2016-05-23T05:14:52.639Z,18.73
2016-05-23T05:15:52.859Z,18.59
2016-05-23T05:16:52.410Z,18.59
2016-05-23T05:18:06.490Z,18.72
2016-05-23T05:18:52.540Z,18.61
2016-05-23T05:19:52.714Z,18.64
2016-05-23T05:20:52.218Z,18.68
2016-05-23T05:21:53.173Z,18.57
2016-05-23T05:22:52.363Z,18.68
2016-05-23T05:23:52.242Z,18.57
2016-05-23T05:24:52.212Z,18.67
2016-05-23T05:25:52.605Z,18.62
2016-05-23T05:26:52.218Z,18.55
2016-05-23T05:27:52.252Z,18.62
2016-05-23T05:28:52.333Z,18.59
2016-05-23T05:29:51.867Z,18.58
2016-05-23T05:30:52.228Z,18.5
2016-05-23T05:31:52.216Z,18.62
2016-05-23T05:32:52.140Z,18.61
2016-05-23T05:33:52.065Z,18.62
2016-05-23T05:34:52.036Z,18.52
2016-05-23T05:35:52.071Z,18.59
2016-05-23T05:36:51.994Z,18.57
2016-05-23T05:37:51.966Z,18.55
2016-05-23T05:38:51.969Z,18.55
2016-05-23T05:39:51.925Z,18.59
2016-05-23T05:40:51.990Z,18.62
2016-05-23T05:41:52.227Z,18.58
2016-05-23T05:42:51.965Z,18.59
2016-05-23T05:43:51.857Z,18.58
2016-05-23T05:44:52.126Z,18.59
2016-05-23T05:45:51.956Z,18.57
2016-05-23T05:46:51.818Z,18.62
2016-05-23T05:47:51.759Z,18.54
2016-05-23T05:48:51.776Z,18.57
2016-05-23T05:49:51.576Z,18.57
2016-05-23T05:50:51.611Z,18.59
2016-05-23T05:51:51.629Z,18.61
2016-05-23T05:52:51.991Z,18.55
2016-05-23T05:53:51.650Z,18.57
2016-05-23T05:54:51.981Z,18.58
2016-05-23T05:55:51.639Z,18.58
2016-05-23T05:56:52.220Z,18.57
2016-05-23T05:57:51.630Z,18.59
2016-05-23T05:58:51.961Z,18.58
2016-05-23T05:59:54.791Z,18.54
2016-05-23T06:00:51.575Z,18.58
2016-05-23T06:01:51.344Z,18.52
2016-05-23T06:02:51.487Z,18.57
2016-05-23T06:03:51.833Z,18.59
2016-05-23T06:04:51.524Z,18.55
2016-05-23T06:06:51.419Z,18.57
2016-05-23T06:07:51.452Z,18.57
2016-05-23T06:08:51.284Z,18.52
2016-05-23T06:09:51.552Z,18.59
2016-05-23T06:10:51.196Z,18.55
2016-05-23T06:11:51.292Z,18.58
2016-05-23T06:12:51.451Z,18.55
2016-05-23T06:13:51.343Z,18.57
2016-05-23T06:14:51.316Z,18.58
2016-05-23T06:15:51.615Z,18.47
2016-05-23T06:16:51.712Z,18.47
2016-05-23T06:17:51.137Z,18.44
2016-05-23T06:19:51.751Z,18.39
2016-05-23T06:20:51.832Z,18.4
2016-05-23T06:21:51.257Z,18.4
2016-05-23T06:22:51.056Z,18.4
2016-05-23T06:23:51.183Z,18.43
2016-05-23T06:24:51.842Z,18.4
2016-05-23T06:25:51.064Z,18.44
2016-05-23T06:26:51.270Z,18.36
2016-05-23T06:28:51.556Z,18.42
2016-05-23T06:29:50.778Z,18.4
2016-05-23T06:30:52.015Z,18.36
2016-05-23T06:31:50.877Z,18.46
2016-05-23T06:32:50.833Z,18.43
2016-05-23T06:33:50.789Z,18.43
2016-05-23T06:34:51.448Z,18.4
2016-05-23T06:35:51.888Z,18.39
2016-05-23T06:36:50.985Z,18.36
2016-05-23T06:37:51.034Z,18.33
2016-05-23T06:38:50.741Z,18.42
2016-05-23T06:39:51.710Z,18.31
2016-05-23T06:40:52.933Z,18.29
2016-05-23T06:41:51.060Z,18.24
2016-05-23T06:42:50.782Z,18.31
2016-05-23T06:43:50.596Z,18.22
2016-05-23T06:44:50.834Z,18.17
2016-05-23T06:45:52.602Z,18.13
2016-05-23T06:46:50.465Z,18.17
2016-05-23T06:47:51.171Z,18.17
2016-05-23T06:48:51.558Z,18.1
2016-05-23T06:49:51.352Z,18.1
2016-05-23T06:50:51.380Z,18.07
2016-05-23T06:51:50.627Z,18.07
2016-05-23T06:52:50.842Z,18.03
2016-05-23T06:53:50.884Z,18.03
2016-05-23T06:54:50.974Z,18.04
2016-05-23T06:55:50.596Z,18.03
2016-05-23T06:56:51.140Z,18.04
2016-05-23T06:57:50.354Z,18.04
2016-05-23T06:58:50.501Z,18.09
2016-05-23T06:59:50.912Z,18.07
2016-05-23T07:00:51.982Z,18.06
2016-05-23T07:01:51.080Z,18
2016-05-23T07:02:50.586Z,18.04
2016-05-23T07:03:50.731Z,18.07
2016-05-23T07:04:50.469Z,18.06
2016-05-23T07:05:50.379Z,18.06
2016-05-23T07:06:50.476Z,18.04
2016-05-23T07:07:50.715Z,18.06
2016-05-23T07:08:50.327Z,17.97
2016-05-23T07:09:50.330Z,18.06
2016-05-23T07:10:50.303Z,18.03
2016-05-23T07:11:50.211Z,18.03
2016-05-23T07:12:51.464Z,17.94
2016-05-23T07:13:50.515Z,18.03
2016-05-23T07:14:50.096Z,18.09
2016-05-23T07:15:50.161Z,18.06
2016-05-23T07:16:50.165Z,18.1
2016-05-23T07:17:49.793Z,18.04
2016-05-23T07:18:50.076Z,18.04
2016-05-23T07:19:50.016Z,18.09
2016-05-23T07:20:50.551Z,17.97
2016-05-23T07:21:50.069Z,18.09
2016-05-23T07:22:50.228Z,18.06
2016-05-23T07:23:49.949Z,18.06
2016-05-23T07:24:50.171Z,18.06
2016-05-23T07:25:50.282Z,18.06
2016-05-23T07:26:49.785Z,18.12
2016-05-23T07:27:49.944Z,18.07
2016-05-23T07:28:49.931Z,18.13
2016-05-23T07:29:49.950Z,18.12
2016-05-23T07:30:49.734Z,18.1
2016-05-23T07:31:49.814Z,18.12
2016-05-23T07:32:50.489Z,18.09
2016-05-23T07:33:50.225Z,18.1
2016-05-23T07:34:50.057Z,18.12
2016-05-23T07:35:49.747Z,18.09
2016-05-23T07:36:49.687Z,18.03
2016-05-23T07:37:49.503Z,18.04
2016-05-23T07:38:49.709Z,18.03
2016-05-23T07:39:50.305Z,18.09
2016-05-23T07:40:49.714Z,17.99
2016-05-23T07:41:49.544Z,18.03
2016-05-23T07:42:49.297Z,18.04
2016-05-23T07:43:50.112Z,18.07
2016-05-23T07:44:49.897Z,18.06
2016-05-23T07:45:49.586Z,18.09
2016-05-23T07:46:49.791Z,17.95
2016-05-23T07:47:49.466Z,18.06
2016-05-23T07:48:49.501Z,17.88
2016-05-23T07:49:50.003Z,17.87
2016-05-23T07:50:49.444Z,17.94
2016-05-23T07:51:49.493Z,17.84
2016-05-23T07:52:50.183Z,17.92
2016-05-23T07:53:49.482Z,17.87
2016-05-23T07:54:49.688Z,17.89
2016-05-23T07:55:50.035Z,17.92
2016-05-23T07:56:49.663Z,17.76
2016-05-23T07:57:49.134Z,17.82
2016-05-23T07:58:49.293Z,17.73
2016-05-23T07:59:49.733Z,17.81
2016-05-23T08:00:50.174Z,17.91
2016-05-23T08:01:49.161Z,17.76
2016-05-23T08:02:49.648Z,17.88
2016-05-23T08:03:49.181Z,17.91
2016-05-23T08:04:49.715Z,17.87
2016-05-23T08:05:49.187Z,17.85
2016-05-23T08:06:49.003Z,17.89
2016-05-23T08:07:49.411Z,17.94
2016-05-23T08:08:49.726Z,17.91
2016-05-23T08:09:49.089Z,17.92
2016-05-23T08:10:49.232Z,17.94
2016-05-23T08:11:49.703Z,17.92
2016-05-23T08:12:49.003Z,17.99
2016-05-23T08:13:49.053Z,17.91
2016-05-23T08:14:49.039Z,17.91
2016-05-23T08:15:48.854Z,17.87
2016-05-23T08:16:48.857Z,17.94
2016-05-23T08:17:49.313Z,17.92
2016-05-23T08:18:48.832Z,17.97
2016-05-23T08:19:48.975Z,17.97
2016-05-23T08:21:02.524Z,17.85
2016-05-23T08:21:49.183Z,17.95
2016-05-23T08:22:48.592Z,17.95
2016-05-23T08:23:49.079Z,17.94
2016-05-23T08:24:49.081Z,17.91
2016-05-23T08:25:48.788Z,17.91
2016-05-23T08:26:48.665Z,17.99
2016-05-23T08:27:49.090Z,17.95
2016-05-23T08:28:48.608Z,17.97
2016-05-23T08:29:48.907Z,17.95
2016-05-23T08:30:48.785Z,17.95
2016-05-23T08:31:48.648Z,17.97
2016-05-23T08:32:48.415Z,17.97
2016-05-23T08:33:49.200Z,17.94
2016-05-23T08:34:48.656Z,17.94
2016-05-23T08:36:02.159Z,17.85
2016-05-23T08:36:48.770Z,17.95
2016-05-23T08:37:48.648Z,17.88
2016-05-23T08:38:48.464Z,17.94
2016-05-23T08:39:48.591Z,17.88
2016-05-23T08:41:02.125Z,17.88
2016-05-23T08:41:48.736Z,17.89
2016-05-23T08:42:48.255Z,17.94
2016-05-23T08:43:48.289Z,17.88
2016-05-23T08:44:48.823Z,17.95
2016-05-23T08:46:02.436Z,17.91
2016-05-23T08:46:48.391Z,17.95
2016-05-23T08:47:48.550Z,17.89
2016-05-23T08:48:48.225Z,17.84
2016-05-23T08:49:48.211Z,17.94
2016-05-23T08:50:48.260Z,17.94
2016-05-23T08:51:48.295Z,17.92
2016-05-23T08:53:02.594Z,18.02
2016-05-23T08:53:48.129Z,18.06
2016-05-23T08:54:48.038Z,18.07
2016-05-23T08:55:48.103Z,18.03
2016-05-23T08:56:48.199Z,18.09
2016-05-23T08:57:47.937Z,18.07
2016-05-23T08:58:48.001Z,18.09
2016-05-23T08:59:48.067Z,18.07
2016-05-23T09:00:48.601Z,18.21
2016-05-23T09:01:47.806Z,18.07
2016-05-23T09:02:47.903Z,18.09
2016-05-23T09:03:47.906Z,18.09
2016-05-23T09:04:48.627Z,18.22
2016-05-23T09:05:47.833Z,18.19
2016-05-23T09:06:51.304Z,18.21
2016-05-23T09:07:47.932Z,18.13
2016-05-23T09:08:48.153Z,18.19
2016-05-23T09:09:47.750Z,18.31
2016-05-23T09:11:01.471Z,18.29
2016-05-23T09:11:47.661Z,18.29
2016-05-23T09:12:47.648Z,18.31
2016-05-23T09:13:47.558Z,18.37
2016-05-23T09:14:48.233Z,18.25
2016-05-23T09:15:47.594Z,18.36
2016-05-23T09:16:47.581Z,18.19
2016-05-23T09:17:48.006Z,18.27
2016-05-23T09:18:47.790Z,18.19
2016-05-23T09:19:47.527Z,18.17
2016-05-23T09:20:47.545Z,18.13
2016-05-23T09:21:47.672Z,18.27
2016-05-23T09:22:50.222Z,18.19
2016-05-23T09:24:01.287Z,18.25
2016-05-23T09:24:47.649Z,18.25
2016-05-23T09:25:47.590Z,18.36
2016-05-23T09:26:47.983Z,18.29
2016-05-23T09:27:47.579Z,18.31
2016-05-23T09:28:47.598Z,18.33
2016-05-23T09:29:47.523Z,18.34
2016-05-23T09:30:47.821Z,18.34
2016-05-23T09:31:47.684Z,18.28
2016-05-23T09:32:47.327Z,18.28
2016-05-23T09:33:47.251Z,18.27
2016-05-23T09:34:47.286Z,18.28
2016-05-23T09:35:47.679Z,18.29
2016-05-23T09:36:47.181Z,18.27
2016-05-23T09:37:47.747Z,18.19
2016-05-23T09:38:46.984Z,18.19
2016-05-23T09:39:46.939Z,18.17
2016-05-23T09:40:47.239Z,18.09
2016-05-23T09:41:47.070Z,18.1
2016-05-23T09:42:47.073Z,18.1
2016-05-23T09:43:47.092Z,18.07
2016-05-23T09:45:47.269Z,18.1
2016-05-23T09:46:47.708Z,18.21
2016-05-23T09:47:46.759Z,18.27
2016-05-23T09:48:47.011Z,18.28
2016-05-23T09:49:47.279Z,18.28
2016-05-23T09:50:46.860Z,18.24
2016-05-23T09:51:47.082Z,18.13
2016-05-23T09:52:46.913Z,18.19
2016-05-23T09:53:47.399Z,18.19
2016-05-23T09:54:46.793Z,18.28
2016-05-23T09:55:46.749Z,18.34
2016-05-23T09:56:47.048Z,18.39
2016-05-23T09:57:46.926Z,18.39
2016-05-23T09:58:47.522Z,18.36
2016-05-23T10:00:46.684Z,18.5
2016-05-23T10:01:47.187Z,18.55
2016-05-23T10:02:46.987Z,18.62
2016-05-23T10:03:46.974Z,18.72
2016-05-23T10:04:47.835Z,18.74
2016-05-23T10:05:46.604Z,18.65
2016-05-23T10:06:46.840Z,18.7
2016-05-23T10:08:23.875Z,18.68
2016-05-23T10:08:47.189Z,18.82
2016-05-23T10:09:46.833Z,18.76
2016-05-23T10:10:46.758Z,18.72
2016-05-23T10:11:46.479Z,18.68
2016-05-23T10:12:46.419Z,18.64
2016-05-23T10:13:47.641Z,18.7
2016-05-23T10:14:47.081Z,18.7
2016-05-23T10:15:46.615Z,18.73
2016-05-23T10:16:46.961Z,18.59
2016-05-23T10:17:46.510Z,18.54
2016-05-23T10:18:46.920Z,18.58
2016-05-23T10:19:46.453Z,18.58
2016-05-23T10:20:46.113Z,18.57
2016-05-23T10:21:46.271Z,18.58
2016-05-23T10:22:46.774Z,18.55
2016-05-23T10:23:46.105Z,18.46
2016-05-23T10:24:46.233Z,18.47
2016-05-23T10:25:46.438Z,18.46
2016-05-23T10:26:46.488Z,18.49
2016-05-23T10:27:46.491Z,18.49
2016-05-23T10:28:46.588Z,18.5
2016-05-23T10:29:46.465Z,18.55
2016-05-23T10:30:46.265Z,18.46
2016-05-23T10:31:46.049Z,18.43
2016-05-23T10:32:46.021Z,18.47
2016-05-23T10:34:01.240Z,18.52
2016-05-23T10:34:47.697Z,18.5
2016-05-23T10:35:46.309Z,18.47
2016-05-23T10:36:45.906Z,18.49
2016-05-23T10:37:45.923Z,18.49
2016-05-23T10:38:45.926Z,18.5
2016-05-23T10:39:45.976Z,18.44
2016-05-23T10:40:45.839Z,18.37
2016-05-23T10:41:46.044Z,18.43
2016-05-23T10:42:46.390Z,18.37
2016-05-23T10:43:46.111Z,18.52
2016-05-23T10:44:45.692Z,18.5
2016-05-23T10:45:45.836Z,18.5
2016-05-23T10:46:45.714Z,18.46
2016-05-23T10:47:46.122Z,18.47
2016-05-23T10:48:45.969Z,18.55
2016-05-23T10:49:46.597Z,18.54
2016-05-23T10:50:45.787Z,18.52
2016-05-23T10:51:46.211Z,18.57
2016-05-23T10:52:45.699Z,18.55
2016-05-23T10:53:45.670Z,18.58
2016-05-23T11:15:09.039Z,18.49
2016-05-23T11:15:54.636Z,18.44
2016-05-23T11:17:54.564Z,18.5
2016-05-23T11:18:54.956Z,18.43
2016-05-23T11:19:54.756Z,18.4
2016-05-23T11:20:54.477Z,18.44
2016-05-23T11:21:54.745Z,18.39
2016-05-23T11:22:54.436Z,18.43
2016-05-23T11:23:54.313Z,18.4
2016-05-23T11:24:54.832Z,18.44
2016-05-23T11:25:54.491Z,18.39
2016-05-23T11:26:54.509Z,18.4
2016-05-23T11:27:54.574Z,18.39
2016-05-23T11:28:54.702Z,18.34
2016-05-23T11:29:54.611Z,18.39
2016-05-23T11:30:54.535Z,18.29
2016-05-23T11:31:54.960Z,18.29
2016-05-23T11:32:54.510Z,18.36
2016-05-23T11:33:54.653Z,18.28
2016-05-23T11:34:54.390Z,18.28
2016-05-23T11:35:54.205Z,18.31
2016-05-23T11:36:54.646Z,18.37
2016-05-23T11:37:54.429Z,18.34
2016-05-23T11:38:53.963Z,18.42
2016-05-23T11:39:53.965Z,18.37
2016-05-23T11:40:54.062Z,18.36
2016-05-23T11:41:54.456Z,18.15
2016-05-23T11:42:54.114Z,18.36
2016-05-23T11:43:54.414Z,18.28
2016-05-23T11:44:54.167Z,18.31
2016-05-23T11:45:56.934Z,18.27
2016-05-23T11:46:53.812Z,18.39
2016-05-23T11:47:53.909Z,18.4
2016-05-23T11:48:53.802Z,18.36
2016-05-23T11:49:53.945Z,18.37
2016-05-23T11:50:53.917Z,18.28
2016-05-23T11:51:53.826Z,18.34
2016-05-23T11:53:53.800Z,18.4
2016-05-23T11:54:53.944Z,18.43
2016-05-23T11:55:53.993Z,18.43
2016-05-23T11:56:53.933Z,18.54
2016-05-23T11:57:53.530Z,18.58
2016-05-23T11:58:57.174Z,18.58
2016-05-23T11:59:54.520Z,18.54
2016-05-23T12:00:54.240Z,18.59
2016-05-23T12:01:53.931Z,18.54
2016-05-23T12:02:53.855Z,18.52
2016-05-23T12:03:54.030Z,18.46
2016-05-23T12:04:54.721Z,18.59
2016-05-23T12:05:54.224Z,18.57
2016-05-23T12:06:57.491Z,18.49
2016-05-23T12:07:53.651Z,18.55
2016-05-23T12:08:53.654Z,18.58
2016-05-23T12:09:53.704Z,18.59
2016-05-23T12:10:53.659Z,18.57
2016-05-23T12:11:53.723Z,18.59
2016-05-23T12:12:53.648Z,18.58
2016-05-23T12:13:53.620Z,18.59
2016-05-23T12:14:53.795Z,18.59
2016-05-23T12:15:53.656Z,18.62
2016-05-23T12:16:53.659Z,18.55
2016-05-23T12:17:53.489Z,18.59
2016-05-23T12:18:53.617Z,18.58
2016-05-23T12:19:53.776Z,18.54
2016-05-23T12:20:53.154Z,18.57
2016-05-23T12:21:53.689Z,18.62
2016-05-23T12:22:53.519Z,18.55
2016-05-23T12:23:53.428Z,18.58
2016-05-23T12:24:53.524Z,18.57
2016-05-23T12:25:53.714Z,18.58
2016-05-23T12:26:53.452Z,18.61
2016-05-23T12:27:53.533Z,18.59
2016-05-23T12:28:56.269Z,18.55
2016-05-23T12:29:52.960Z,18.55
2016-05-23T12:30:53.635Z,18.62
2016-05-23T12:31:52.918Z,18.58
2016-05-23T12:32:53.077Z,18.46
2016-05-23T12:34:06.720Z,18.5
2016-05-23T12:34:53.379Z,18.44
2016-05-23T12:35:53.007Z,18.42
2016-05-23T12:36:53.729Z,18.49
2016-05-23T12:37:53.075Z,18.49
2016-05-23T12:38:52.890Z,18.58
2016-05-23T12:39:52.986Z,18.74
2016-05-23T12:40:53.082Z,18.7
2016-05-23T12:41:53.039Z,18.67
2016-05-23T12:42:52.917Z,18.68
2016-05-23T12:43:53.388Z,18.64
2016-05-23T12:44:53.765Z,18.58
2016-05-23T12:45:52.815Z,18.58
2016-05-23T12:46:53.693Z,18.58
2016-05-23T12:47:52.759Z,18.61
2016-05-23T12:48:52.854Z,18.58
2016-05-23T12:49:52.810Z,18.57
2016-05-23T12:50:52.751Z,18.52
2016-05-23T12:51:52.644Z,18.55
2016-05-23T12:52:52.631Z,18.55
2016-05-23T12:53:52.806Z,18.59
2016-05-23T12:54:52.824Z,18.61
2016-05-23T12:55:52.919Z,18.62
2016-05-23T12:56:52.485Z,18.57
2016-05-23T12:57:52.519Z,18.57
2016-05-23T12:59:52.977Z,18.59
2016-05-23T13:00:52.715Z,18.57
2016-05-23T13:03:52.769Z,18.65
2016-05-23T13:04:52.569Z,18.79
2016-05-23T13:05:52.447Z,18.73
2016-05-23T13:07:52.827Z,18.77
2016-05-23T13:10:52.788Z,18.72
2016-05-23T13:11:53.432Z,18.74
2016-05-23T13:12:52.934Z,18.74
2016-05-23T13:13:52.906Z,18.72
2016-05-23T13:14:53.158Z,18.7
2016-05-23T13:15:53.084Z,18.8
2016-05-23T13:16:52.648Z,18.92
2016-05-23T13:17:53.479Z,18.87
2016-05-23T13:18:52.810Z,18.86
2016-05-23T13:19:53.484Z,18.9
2016-05-23T13:21:52.037Z,18.9
2016-05-23T13:22:51.992Z,18.86
2016-05-23T13:23:52.292Z,18.91
2016-05-23T13:24:52.342Z,18.92
2016-05-23T13:25:52.486Z,18.92
2016-05-23T13:26:52.238Z,18.91
2016-05-23T13:27:51.850Z,18.9
2016-05-23T13:28:51.884Z,18.92
2016-05-23T13:29:51.886Z,18.87